Corky — WDC3366 — position and weather

sailwx.info

Track history (hours):
 
Tides and Currents Weather Stations Pressure Air Temp Water Temp Dewpoint Dewpoint Depression Visibility Wind Speed Wind Dir Waves Ship Positions

Corky

Owner: Gulf South Marine Transportation, Inc., New Orleans, LA. More information available from US FCC via Universal Licensing System and Coast Guard Vessel Documentation Center.

Last reported at 2016-May-02 23:07 UTC. Time now 2016-May-05 04:49 UTC.
Position N 30°01' W 089°54'.

Length 18 m; draft 3.3 m.

Type: Tow > 200 m length. MMSI: 367006780.

Date/timePositionNaut miles runAvg speedWind from/ knotsBaromVisibWave heightAir tempDewpointWater temp
2016-May-02 23:07N 30°01' W 089°54'1 0.4
2016-May-02 21:14N 30°01' W 089°54'0 0.0
2016-May-02 03:32N 30°01' W 089°54'4 3.6
2016-May-02 02:33N 29°60' W 089°58'4 3.5
2016-May-02 01:33N 29°58' W 090°02'0 0.5
2016-May-02 00:33N 29°57' W 090°02'1 0.6
2016-May-01 23:33N 29°57' W 090°02'0 0.0
2016-May-01 22:33N 29°57' W 090°02'0 0.0
2016-May-01 21:33N 29°57' W 090°02'0 0.0
2016-May-01 20:33N 29°57' W 090°02'0 0.0
2016-May-01 19:33N 29°57' W 090°02'0 0.0
2016-May-01 18:33N 29°57' W 090°02'0 0.0
2016-May-01 17:33N 29°57' W 090°02'0 0.0
2016-May-01 16:33N 29°57' W 090°02'0 0.0
2016-May-01 15:33N 29°57' W 090°02'0 0.0
2016-May-01 14:33N 29°57' W 090°02'0 0.0
2016-May-01 13:33N 29°57' W 090°02'0 0.0
2016-May-01 12:33N 29°57' W 090°02'0 0.0
2016-May-01 11:33N 29°57' W 090°02'0 0.0
2016-May-01 10:33N 29°57' W 090°02'1 0.5
2016-May-01 09:33N 29°57' W 090°02'3 3.0
2016-May-01 08:33N 29°56' W 089°59'3 2.6
2016-May-01 07:33N 29°55' W 089°56'0 0.0
2016-May-01 06:33N 29°55' W 089°56'0 0.3
2016-May-01 05:33N 29°55' W 089°56'0 0.3
2016-May-01 04:33N 29°55' W 089°56'5 4.8
2016-May-01 03:33N 29°57' W 090°01'7 6.4
2016-May-01 02:32N 29°55' W 090°08'2 2.2
2016-May-01 01:33N 29°57' W 090°09'0 0.0
2016-May-01 00:33N 29°57' W 090°09'0 0.0
2016-Apr-30 23:33N 29°57' W 090°09'2 2.3
2016-Apr-30 22:33N 29°56' W 090°11'1 0.1
2016-Apr-30 12:23N 29°55' W 090°12'3 3.9
2016-Apr-30 11:33N 29°56' W 090°08'4 4.0
2016-Apr-30 10:33N 29°55' W 090°04'2 2.4
2016-Apr-30 09:33N 29°57' W 090°02'1 1.0
2016-Apr-30 08:33N 29°58' W 090°02'2 2.0
2016-Apr-30 07:30N 29°60' W 090°00'0 0.0
2016-Apr-30 06:30N 29°60' W 090°00'0 0.0
2016-Apr-30 05:31N 29°60' W 090°00'0 0.0
2016-Apr-30 04:33N 29°60' W 090°00'0 0.0
2016-Apr-30 03:33N 29°60' W 090°00'0 0.0
2016-Apr-30 02:33N 29°60' W 090°00'0 0.0
2016-Apr-30 01:32N 29°60' W 090°00'0 0.0
2016-Apr-30 00:33N 29°60' W 090°00'0 0.0
2016-Apr-29 23:31N 29°60' W 090°00'0 0.0
2016-Apr-29 22:33N 29°60' W 090°00'0 0.0
2016-Apr-29 21:33N 29°60' W 090°00'0 0.0
2016-Apr-29 20:33N 29°60' W 090°00'0 0.0
2016-Apr-29 19:33N 29°60' W 090°00'0 0.0
2016-Apr-29 18:33N 29°60' W 090°00'0 0.0
2016-Apr-29 17:33N 29°60' W 090°00'  
2016-Apr-24 15:10N 30°01' W 089°53'3 4.8
2016-Apr-24 14:33N 30°00' W 089°57'3 3.5
2016-Apr-24 13:33N 29°60' W 090°01'2 2.3
2016-Apr-24 12:33N 29°58' W 090°02'0 0.2
2016-Apr-24 11:33N 29°58' W 090°02'1 0.8
2016-Apr-24 10:33N 29°57' W 090°01'2 1.8
2016-Apr-24 09:33N 29°56' W 089°60'0 0.0
2016-Apr-24 08:33N 29°56' W 089°60'0 0.0
2016-Apr-24 07:30N 29°56' W 089°60'0 0.0
2016-Apr-24 06:33N 29°56' W 089°60'0 0.0
2016-Apr-24 05:33N 29°56' W 089°60'0 0.0
2016-Apr-24 04:30N 29°56' W 089°60'0 0.0
2016-Apr-24 03:33N 29°56' W 089°60'0 0.0
2016-Apr-24 02:33N 29°56' W 089°60'0 0.0
2016-Apr-24 01:33N 29°56' W 089°60'0 0.0
2016-Apr-24 00:33N 29°56' W 089°60'0 0.0
2016-Apr-23 23:33N 29°56' W 089°60'0 0.0
2016-Apr-23 22:33N 29°56' W 089°60'0 0.0
2016-Apr-23 21:33N 29°56' W 089°60'0 0.0
2016-Apr-23 20:33N 29°56' W 089°60'0 0.0
2016-Apr-23 19:33N 29°56' W 089°60'0 0.0
2016-Apr-23 18:33N 29°56' W 089°60'0 0.0
2016-Apr-23 17:34N 29°56' W 089°60'0 0.0
2016-Apr-23 16:33N 29°56' W 089°60'0 0.0
2016-Apr-23 15:33N 29°56' W 089°60'0 0.0
2016-Apr-23 14:33N 29°56' W 089°60'0 0.0
2016-Apr-23 13:33N 29°56' W 089°60'0 0.0
2016-Apr-23 12:33N 29°56' W 089°60'0 0.0
2016-Apr-23 11:33N 29°56' W 089°60'0 0.0
2016-Apr-23 10:33N 29°56' W 089°60'0 0.0
2016-Apr-23 09:34N 29°56' W 089°60'0 0.0
2016-Apr-23 08:33N 29°56' W 089°60'0 0.0
2016-Apr-23 07:33N 29°56' W 089°60'2 2.4
2016-Apr-23 06:34N 29°57' W 090°02'5 5.4
2016-Apr-23 05:33N 29°54' W 090°07'0 0.0
2016-Apr-23 04:33N 29°54' W 090°07'2 2.4
2016-Apr-23 03:33N 29°56' W 090°08'  
Track history (hours):
 
Tides and Currents Weather Stations Pressure Air Temp Water Temp Dewpoint Dewpoint Depression Visibility Wind Speed Wind Dir Waves Ship Positions

Corky

Owner: Gulf South Marine Transportation, Inc., New Orleans, LA. More information available from US FCC via Universal Licensing System and Coast Guard Vessel Documentation Center.

Last reported at 2016-May-02 23:07 UTC. Time now 2016-May-05 04:49 UTC.
Position N 30°01' W 089°54'.

Length 18 m; draft 3.3 m.

Type: Tow > 200 m length. MMSI: 367006780.

Date/timePositionNaut miles runAvg speedWind from/ knotsBaromVisibWave heightAir tempDewpointWater temp
2016-May-02 23:07N 30°01' W 089°54'1 0.4
2016-May-02 21:14N 30°01' W 089°54'0 0.0
2016-May-02 03:32N 30°01' W 089°54'4 3.6
2016-May-02 02:33N 29°60' W 089°58'4 3.5
2016-May-02 01:33N 29°58' W 090°02'0 0.5
2016-May-02 00:33N 29°57' W 090°02'1 0.6
2016-May-01 23:33N 29°57' W 090°02'0 0.0
2016-May-01 22:33N 29°57' W 090°02'0 0.0
2016-May-01 21:33N 29°57' W 090°02'0 0.0
2016-May-01 20:33N 29°57' W 090°02'0 0.0
2016-May-01 19:33N 29°57' W 090°02'0 0.0
2016-May-01 18:33N 29°57' W 090°02'0 0.0
2016-May-01 17:33N 29°57' W 090°02'0 0.0
2016-May-01 16:33N 29°57' W 090°02'0 0.0
2016-May-01 15:33N 29°57' W 090°02'0 0.0
2016-May-01 14:33N 29°57' W 090°02'0 0.0
2016-May-01 13:33N 29°57' W 090°02'0 0.0
2016-May-01 12:33N 29°57' W 090°02'0 0.0
2016-May-01 11:33N 29°57' W 090°02'0 0.0
2016-May-01 10:33N 29°57' W 090°02'1 0.5
2016-May-01 09:33N 29°57' W 090°02'3 3.0
2016-May-01 08:33N 29°56' W 089°59'3 2.6
2016-May-01 07:33N 29°55' W 089°56'0 0.0
2016-May-01 06:33N 29°55' W 089°56'0 0.3
2016-May-01 05:33N 29°55' W 089°56'0 0.3
2016-May-01 04:33N 29°55' W 089°56'5 4.8
2016-May-01 03:33N 29°57' W 090°01'7 6.4
2016-May-01 02:32N 29°55' W 090°08'2 2.2
2016-May-01 01:33N 29°57' W 090°09'0 0.0
2016-May-01 00:33N 29°57' W 090°09'0 0.0
2016-Apr-30 23:33N 29°57' W 090°09'2 2.3
2016-Apr-30 22:33N 29°56' W 090°11'1 0.1
2016-Apr-30 12:23N 29°55' W 090°12'3 3.9
2016-Apr-30 11:33N 29°56' W 090°08'4 4.0
2016-Apr-30 10:33N 29°55' W 090°04'2 2.4
2016-Apr-30 09:33N 29°57' W 090°02'1 1.0
2016-Apr-30 08:33N 29°58' W 090°02'2 2.0
2016-Apr-30 07:30N 29°60' W 090°00'0 0.0
2016-Apr-30 06:30N 29°60' W 090°00'0 0.0
2016-Apr-30 05:31N 29°60' W 090°00'0 0.0
2016-Apr-30 04:33N 29°60' W 090°00'0 0.0
2016-Apr-30 03:33N 29°60' W 090°00'0 0.0
2016-Apr-30 02:33N 29°60' W 090°00'0 0.0
2016-Apr-30 01:32N 29°60' W 090°00'0 0.0
2016-Apr-30 00:33N 29°60' W 090°00'0 0.0
2016-Apr-29 23:31N 29°60' W 090°00'0 0.0
2016-Apr-29 22:33N 29°60' W 090°00'0 0.0
2016-Apr-29 21:33N 29°60' W 090°00'0 0.0
2016-Apr-29 20:33N 29°60' W 090°00'0 0.0
2016-Apr-29 19:33N 29°60' W 090°00'0 0.0
2016-Apr-29 18:33N 29°60' W 090°00'0 0.0
2016-Apr-29 17:33N 29°60' W 090°00'  
2016-Apr-24 15:10N 30°01' W 089°53'3 4.8
2016-Apr-24 14:33N 30°00' W 089°57'3 3.5
2016-Apr-24 13:33N 29°60' W 090°01'2 2.3
2016-Apr-24 12:33N 29°58' W 090°02'0 0.2
2016-Apr-24 11:33N 29°58' W 090°02'1 0.8
2016-Apr-24 10:33N 29°57' W 090°01'2 1.8
2016-Apr-24 09:33N 29°56' W 089°60'0 0.0
2016-Apr-24 08:33N 29°56' W 089°60'0 0.0
2016-Apr-24 07:30N 29°56' W 089°60'0 0.0
2016-Apr-24 06:33N 29°56' W 089°60'0 0.0
2016-Apr-24 05:33N 29°56' W 089°60'0 0.0
2016-Apr-24 04:30N 29°56' W 089°60'0 0.0
2016-Apr-24 03:33N 29°56' W 089°60'0 0.0
2016-Apr-24 02:33N 29°56' W 089°60'0 0.0
2016-Apr-24 01:33N 29°56' W 089°60'0 0.0
2016-Apr-24 00:33N 29°56' W 089°60'0 0.0
2016-Apr-23 23:33N 29°56' W 089°60'0 0.0
2016-Apr-23 22:33N 29°56' W 089°60'0 0.0
2016-Apr-23 21:33N 29°56' W 089°60'0 0.0
2016-Apr-23 20:33N 29°56' W 089°60'0 0.0
2016-Apr-23 19:33N 29°56' W 089°60'0 0.0
2016-Apr-23 18:33N 29°56' W 089°60'0 0.0
2016-Apr-23 17:34N 29°56' W 089°60'0 0.0
2016-Apr-23 16:33N 29°56' W 089°60'0 0.0
2016-Apr-23 15:33N 29°56' W 089°60'0 0.0
2016-Apr-23 14:33N 29°56' W 089°60'0 0.0
2016-Apr-23 13:33N 29°56' W 089°60'0 0.0
2016-Apr-23 12:33N 29°56' W 089°60'0 0.0
2016-Apr-23 11:33N 29°56' W 089°60'0 0.0
2016-Apr-23 10:33N 29°56' W 089°60'0 0.0
2016-Apr-23 09:34N 29°56' W 089°60'0 0.0
2016-Apr-23 08:33N 29°56' W 089°60'0 0.0
2016-Apr-23 07:33N 29°56' W 089°60'2 2.4
2016-Apr-23 06:34N 29°57' W 090°02'5 5.4
2016-Apr-23 05:33N 29°54' W 090°07'0 0.0
2016-Apr-23 04:33N 29°54' W 090°07'2 2.4
2016-Apr-23 03:33N 29°56' W 090°08'  

Dump ship's entire track history